Time;durP1;ratioP1;P1;durP2;ratioP2;P2;SDS_P1;SDS_P2;PMS_P1;PMS_P2;Temp;Humidity;BMP_temperature;BMP_pressure;BME280_temperature;BME280_humidity;BME280_pressure;Samples;Min_cycle;Max_cycle;Signal;HPM_P1;HPM_P2
2023/03/25 00:00:17;;;;;;;5.20;1.08;;;10.40;93.10;;;;;;5075149;28;20017;-73
2023/03/25 00:02:44;;;;;;;2.97;0.77;;;10.40;93.00;;;;;;5075186;28;20021;-73
2023/03/25 00:05:13;;;;;;;2.40;0.73;;;10.50;92.70;;;;;;5075100;28;20044;-72
2023/03/25 00:07:42;;;;;;;6.00;1.13;;;10.50;92.70;;;;;;5075070;28;20055;-72
2023/03/25 00:10:09;;;;;;;4.05;1.13;;;10.50;92.50;;;;;;5074999;28;20040;-72
2023/03/25 00:12:35;;;;;;;2.47;0.70;;;10.50;92.60;;;;;;5074942;28;20040;-72
2023/03/25 00:15:00;;;;;;;6.00;0.98;;;10.50;92.60;;;;;;5074888;28;20033;-71
2023/03/25 00:17:27;;;;;;;1.05;0.65;;;10.50;92.50;;;;;;5075024;28;20033;-72
2023/03/25 00:19:54;;;;;;;2.58;0.93;;;10.40;92.30;;;;;;5073995;28;20056;-72
2023/03/25 00:22:20;;;;;;;3.95;0.73;;;10.40;92.40;;;;;;5073777;28;20032;-72
2023/03/25 00:24:47;;;;;;;1.17;0.80;;;10.40;92.20;;;;;;5073628;28;20028;-73
2023/03/25 00:27:16;;;;;;;2.60;0.50;;;10.40;92.00;;;;;;5073534;28;20044;-72
2023/03/25 00:29:42;;;;;;;3.92;1.05;;;10.40;92.00;;;;;;5073670;28;20036;-71
2023/03/25 00:32:09;;;;;;;3.55;0.90;;;10.40;92.00;;;;;;5074611;28;20036;-72
2023/03/25 00:34:40;;;;;;;4.00;1.02;;;10.50;92.00;;;;;;5074401;28;20052;-71
2023/03/25 00:37:07;;;;;;;4.47;0.85;;;10.50;92.40;;;;;;5073684;28;20101;-73
2023/03/25 00:39:33;;;;;;;3.20;0.90;;;10.50;92.00;;;;;;5073784;28;20032;-72
2023/03/25 00:42:00;;;;;;;4.22;0.77;;;10.50;91.80;;;;;;5074391;28;20021;-72
2023/03/25 00:44:26;;;;;;;4.20;0.88;;;10.50;91.90;;;;;;5073399;28;20034;-72
2023/03/25 00:46:52;;;;;;;8.15;1.08;;;10.50;91.80;;;;;;5074287;28;20044;-72
2023/03/25 00:49:18;;;;;;;6.07;1.15;;;10.50;91.50;;;;;;5074230;28;20040;-73
2023/03/25 00:51:44;;;;;;;4.63;0.63;;;10.60;91.30;;;;;;5074185;28;20029;-74
2023/03/25 00:54:10;;;;;;;3.95;1.15;;;10.60;91.20;;;;;;5073268;28;20025;-73
2023/03/25 00:56:36;;;;;;;3.92;1.33;;;10.60;91.30;;;;;;5074140;28;20055;-73
2023/03/25 00:59:02;;;;;;;4.50;1.10;;;10.50;91.00;;;;;;5073975;28;20032;-73
2023/03/25 01:01:28;;;;;;;3.97;0.65;;;10.60;90.80;;;;;;5074015;28;20063;-74
2023/03/25 01:03:59;;;;;;;4.38;0.73;;;10.60;90.90;;;;;;5073050;28;20028;-74
2023/03/25 01:06:33;;;;;;;4.03;1.10;;;10.60;91.00;;;;;;5074009;28;20032;-74
2023/03/25 01:09:02;;;;;;;3.92;1.00;;;10.50;90.90;;;;;;5074080;28;20081;-74
2023/03/25 01:11:33;;;;;;;4.60;1.10;;;10.60;90.90;;;;;;5073846;28;20025;-73
2023/03/25 01:14:00;;;;;;;3.17;0.82;;;10.50;90.90;;;;;;5073882;28;20021;-74
2023/03/25 01:16:26;;;;;;;2.72;1.13;;;10.50;90.60;;;;;;5073791;28;20021;-72
2023/03/25 01:18:52;;;;;;;6.20;0.55;;;10.50;90.60;;;;;;5073861;28;20063;-74
2023/03/25 01:21:18;;;;;;;2.83;0.90;;;10.50;90.70;;;;;;5073690;28;20104;-73
2023/03/25 01:23:44;;;;;;;5.32;1.23;;;10.50;90.70;;;;;;5072697;28;20025;-74
2023/03/25 01:26:11;;;;;;;4.30;0.80;;;10.50;90.50;;;;;;5073660;28;20056;-74
2023/03/25 01:28:38;;;;;;;3.45;1.45;;;10.50;90.60;;;;;;5073570;28;20085;-73
2023/03/25 01:31:07;;;;;;;2.63;0.95;;;10.60;90.60;;;;;;5073703;28;20029;-73
2023/03/25 01:33:33;;;;;;;4.78;0.90;;;10.60;90.60;;;;;;5073342;28;20052;-73
2023/03/25 01:35:59;;;;;;;3.03;0.98;;;10.50;90.60;;;;;;5073446;28;20036;-74
2023/03/25 01:38:25;;;;;;;5.28;0.98;;;10.50;90.90;;;;;;5073398;28;20040;-73
2023/03/25 01:40:52;;;;;;;3.38;1.00;;;10.50;90.80;;;;;;5073316;28;20029;-74
2023/03/25 01:43:18;;;;;;;3.03;1.15;;;10.50;90.70;;;;;;5072401;28;20522;-73
2023/03/25 01:45:45;;;;;;;3.88;1.02;;;10.50;90.60;;;;;;5073301;28;20013;-74
2023/03/25 01:48:18;;;;;;;4.63;0.73;;;10.50;91.10;;;;;;5072287;28;20014;-74
2023/03/25 01:50:51;;;;;;;2.63;1.13;;;10.50;90.70;;;;;;5071426;28;20049;-73
2023/03/25 01:53:17;;;;;;;2.70;1.02;;;10.40;90.90;;;;;;5073247;28;20025;-73
2023/03/25 01:55:43;;;;;;;2.53;0.77;;;10.40;91.20;;;;;;5055560;28;20029;-74
2023/03/25 01:58:14;;;;;;;5.20;1.33;;;10.40;91.20;;;;;;5073148;28;20025;-73
2023/03/25 02:00:43;;;;;;;3.22;0.93;;;10.40;91.20;;;;;;5073116;28;20029;-72
2023/03/25 02:03:10;;;;;;;0.95;0.70;;;10.40;91.00;;;;;;5072097;28;20386;-74
2023/03/25 02:06:10;;;;;;;2.17;0.90;;;10.40;91.40;;;;;;5073117;28;20024;-74
2023/03/25 02:08:40;;;;;;;4.60;1.25;;;10.40;91.30;;;;;;5030430;28;20100;-74
2023/03/25 02:11:07;;;;;;;4.82;0.95;;;10.30;91.40;;;;;;5073048;28;20048;-74
2023/03/25 02:13:35;;;;;;;2.55;1.10;;;10.30;92.00;;;;;;5073043;28;20044;-73
2023/03/25 02:16:21;;;;;;;1.75;0.80;;;10.20;92.10;;;;;;5073107;28;20021;-73
2023/03/25 02:19:25;;;;;;;4.28;1.52;;;10.20;92.50;;;;;;5073049;28;20092;-73
2023/03/25 02:22:24;;;;;;;2.53;0.80;;;10.20;92.60;;;;;;5056040;28;20044;-73
2023/03/25 02:25:34;;;;;;;5.22;1.10;;;10.10;93.00;;;;;;5071971;28;20473;-74
2023/03/25 02:28:24;;;;;;;3.42;1.10;;;10.10;93.20;;;;;;5017611;28;20036;-73
2023/03/25 02:31:24;;;;;;;1.38;0.90;;;10.10;93.10;;;;;;5071936;28;20082;-73
2023/03/25 02:34:19;;;;;;;2.08;1.00;;;10.10;92.60;;;;;;5071632;28;20057;-73
2023/03/25 02:37:29;;;;;;;3.92;0.80;;;10.00;92.70;;;;;;5072828;28;20163;-74
2023/03/25 02:40:18;;;;;;;2.17;0.80;;;10.00;92.80;;;;;;5068865;28;20041;-74
2023/03/25 02:42:53;;;;;;;3.20;0.90;;;10.00;92.70;;;;;;5071886;28;20017;-74
2023/03/25 02:45:34;;;;;;;2.28;0.73;;;10.00;92.60;;;;;;5072797;28;20084;-73
2023/03/25 02:48:32;;;;;;;2.93;1.00;;;10.00;92.50;;;;;;5072909;28;20028;-74
2023/03/25 02:51:03;;;;;;;3.03;1.02;;;10.00;93.10;;;;;;5071795;28;20033;-73
2023/03/25 02:53:32;;;;;;;2.05;0.73;;;9.90;93.90;;;;;;5072855;28;20386;-73
2023/03/25 02:56:07;;;;;;;2.90;1.45;;;9.90;94.20;;;;;;5072731;28;20082;-73
2023/03/25 02:58:34;;;;;;;2.33;0.77;;;9.90;94.30;;;;;;5071578;28;20027;-73
2023/03/25 03:01:00;;;;;;;3.30;1.33;;;9.90;94.30;;;;;;5072523;28;20032;-73
2023/03/25 03:03:26;;;;;;;3.40;1.02;;;9.90;94.20;;;;;;5075440;28;20029;-74
2023/03/25 03:05:56;;;;;;;1.73;0.98;;;9.90;94.40;;;;;;5076269;28;20028;-73
2023/03/25 03:08:50;;;;;;;6.65;0.75;;;9.90;94.30;;;;;;5076250;28;20031;-72
2023/03/25 03:11:24;;;;;;;3.15;0.90;;;9.80;94.00;;;;;;5075110;28;20096;-74
2023/03/25 03:13:56;;;;;;;2.80;0.70;;;9.80;94.20;;;;;;5076165;28;20084;-74
2023/03/25 03:16:45;;;;;;;5.07;1.05;;;9.90;93.90;;;;;;5076079;28;20085;-74
2023/03/25 03:19:30;;;;;;;2.30;0.90;;;9.90;93.70;;;;;;5074946;28;20039;-74
2023/03/25 03:22:12;;;;;;;3.22;0.90;;;9.80;93.90;;;;;;5076024;28;20020;-73
2023/03/25 03:25:16;;;;;;;2.92;1.10;;;9.80;93.90;;;;;;5076113;28;20055;-73
2023/03/25 03:27:52;;;;;;;3.20;0.70;;;9.80;94.00;;;;;;5045039;28;20061;-74
2023/03/25 03:30:37;;;;;;;1.40;0.80;;;9.80;93.70;;;;;;5075877;28;20070;-73
2023/03/25 03:33:12;;;;;;;4.07;0.95;;;9.80;93.80;;;;;;5075595;28;20060;-73
2023/03/25 03:35:50;;;;;;;1.25;0.90;;;9.80;94.00;;;;;;5075767;28;20017;-73
2023/03/25 03:38:18;;;;;;;5.05;1.00;;;9.70;94.10;;;;;;5075743;28;20040;-73
2023/03/25 03:40:51;;;;;;;4.35;0.80;;;9.80;94.30;;;;;;5075548;28;20026;-73
2023/03/25 03:43:29;;;;;;;;;;;9.70;94.70;;;;;;5076024;28;20017;-73
2023/03/25 03:46:00;;;;;;;5.35;1.42;;;9.70;94.60;;;;;;5074611;28;19927;-74
2023/03/25 03:48:31;;;;;;;4.55;0.82;;;9.80;94.70;;;;;;5075534;28;20053;-73
2023/03/25 03:51:06;;;;;;;8.88;1.08;;;9.70;94.90;;;;;;5075443;28;20085;-73
2023/03/25 03:53:39;;;;;;;4.85;1.45;;;9.70;95.60;;;;;;5075389;28;20017;-74
2023/03/25 03:56:20;;;;;;;4.15;0.75;;;9.70;96.00;;;;;;5074605;28;20040;-73
2023/03/25 03:58:52;;;;;;;2.75;0.68;;;9.60;96.40;;;;;;5075332;28;20024;-74
2023/03/25 04:01:34;;;;;;;3.55;0.88;;;9.50;96.40;;;;;;5075235;28;20021;-74
2023/03/25 04:04:05;;;;;;;3.85;0.95;;;9.60;96.30;;;;;;5075265;28;20024;-74
2023/03/25 04:07:00;;;;;;;5.28;0.85;;;9.60;96.30;;;;;;5075283;28;20100;-73
2023/03/25 04:09:39;;;;;;;4.03;1.30;;;9.60;96.00;;;;;;5041348;28;20051;-74
2023/03/25 04:12:13;;;;;;;4.38;0.80;;;9.60;96.00;;;;;;5074101;28;20401;-74
2023/03/25 04:14:39;;;;;;;4.70;1.10;;;9.60;95.60;;;;;;5074010;28;20029;-73
2023/03/25 04:17:05;;;;;;;4.78;1.50;;;9.60;95.60;;;;;;5074059;28;20060;-73
2023/03/25 04:19:34;;;;;;;4.10;1.00;;;9.60;95.10;;;;;;5074814;28;20049;-73
2023/03/25 04:22:00;;;;;;;4.10;0.70;;;9.60;95.00;;;;;;5074788;28;20048;-74
2023/03/25 04:24:30;;;;;;;3.75;1.33;;;9.70;95.30;;;;;;5074783;28;20021;-73
2023/03/25 04:27:02;;;;;;;2.13;1.20;;;9.70;95.00;;;;;;5074725;28;20021;-73
2023/03/25 04:29:28;;;;;;;4.68;0.93;;;9.70;94.80;;;;;;5073931;28;20025;-73
2023/03/25 04:31:55;;;;;;;3.08;0.70;;;9.70;94.90;;;;;;5074666;28;20029;-73
2023/03/25 04:34:21;;;;;;;3.28;0.70;;;9.70;94.70;;;;;;5074309;28;20049;-73
2023/03/25 04:36:48;;;;;;;3.10;1.15;;;9.60;95.00;;;;;;5074427;28;20053;-73
2023/03/25 04:39:21;;;;;;;1.05;0.60;;;9.60;95.10;;;;;;5074600;28;20035;-72
2023/03/25 04:41:47;;;;;;;4.15;1.15;;;9.60;94.50;;;;;;5074500;28;20030;-71
2023/03/25 04:44:13;;;;;;;8.98;1.30;;;9.60;94.70;;;;;;5074442;28;20025;-72
2023/03/25 04:46:38;;;;;;;4.88;1.00;;;9.70;94.50;;;;;;5074300;28;20048;-72
2023/03/25 04:49:05;;;;;;;2.67;0.80;;;9.70;94.40;;;;;;5073348;28;20067;-72
2023/03/25 04:51:31;;;;;;;3.10;0.80;;;9.70;94.30;;;;;;5074264;28;20028;-73
2023/03/25 04:53:57;;;;;;;5.18;0.80;;;9.70;94.40;;;;;;5073373;28;20053;-72
2023/03/25 04:56:23;;;;;;;2.20;0.80;;;9.70;94.20;;;;;;5073201;28;20047;-71
2023/03/25 04:58:49;;;;;;;3.72;1.05;;;9.70;94.20;;;;;;5074071;28;20029;-72
2023/03/25 05:01:29;;;;;;;1.35;0.47;;;9.70;94.40;;;;;;5073963;28;20029;-72
2023/03/25 05:04:06;;;;;;;3.83;1.10;;;9.70;94.40;;;;;;5073115;28;20390;-72
2023/03/25 05:06:32;;;;;;;5.32;1.30;;;9.60;94.60;;;;;;5073299;28;20017;-72
2023/03/25 05:09:03;;;;;;;3.50;1.23;;;9.60;94.70;;;;;;5073960;28;20059;-74
2023/03/25 05:11:33;;;;;;;1.90;0.73;;;9.60;94.70;;;;;;5073934;28;20021;-73
2023/03/25 05:13:59;;;;;;;2.95;0.57;;;9.60;94.60;;;;;;5072880;28;20051;-71
2023/03/25 05:16:25;;;;;;;6.15;0.90;;;9.50;94.70;;;;;;5073813;28;20035;-72
2023/03/25 05:18:51;;;;;;;3.80;1.02;;;9.50;95.00;;;;;;5056322;28;20025;-72
2023/03/25 05:21:17;;;;;;;4.97;0.90;;;9.50;95.30;;;;;;5072570;28;20025;-71
2023/03/25 05:23:43;;;;;;;4.97;1.02;;;9.50;95.90;;;;;;5072722;28;20017;-72
2023/03/25 05:26:10;;;;;;;3.95;0.70;;;9.40;96.30;;;;;;5073330;28;20088;-72
2023/03/25 05:28:37;;;;;;;7.05;1.05;;;9.40;96.50;;;;;;5073622;28;20017;-72
2023/03/25 05:31:07;;;;;;;6.15;1.13;;;9.40;96.10;;;;;;5073591;28;20045;-72
2023/03/25 05:33:42;;;;;;;4.22;0.80;;;9.40;96.20;;;;;;5073113;28;20049;-73
2023/03/25 05:36:12;;;;;;;3.80;1.00;;;9.40;96.20;;;;;;5073524;28;20021;-72
2023/03/25 05:38:43;;;;;;;3.70;0.93;;;9.40;96.00;;;;;;5073189;28;20029;-72
2023/03/25 05:41:15;;;;;;;6.65;1.17;;;9.40;96.00;;;;;;5072357;28;20040;-71
2023/03/25 05:43:49;;;;;;;;;;;9.40;96.70;;;;;;5072960;28;20021;-72
2023/03/25 05:46:17;;;;;;;2.35;0.70;;;9.30;97.10;;;;;;5072378;28;19912;-73
2023/03/25 05:48:43;;;;;;;6.28;1.08;;;9.30;97.00;;;;;;5072278;28;20017;-72
2023/03/25 05:51:15;;;;;;;4.35;1.13;;;9.30;96.80;;;;;;5055608;28;20025;-74
2023/03/25 05:53:42;;;;;;;6.33;0.87;;;9.40;96.60;;;;;;5073287;28;20048;-72
2023/03/25 05:56:09;;;;;;;2.58;0.75;;;9.40;96.20;;;;;;5073222;28;20027;-72
2023/03/25 05:58:35;;;;;;;3.95;0.80;;;9.40;96.20;;;;;;5072247;28;20099;-73
2023/03/25 06:01:04;;;;;;;3.72;0.80;;;9.40;96.00;;;;;;5073237;28;20092;-73
2023/03/25 06:03:33;;;;;;;7.13;1.08;;;9.40;96.00;;;;;;5072000;28;20021;-72
2023/03/25 06:05:59;;;;;;;1.33;0.63;;;9.40;95.80;;;;;;5073075;28;20024;-72
2023/03/25 06:08:25;;;;;;;3.10;0.75;;;9.40;95.60;;;;;;5072170;28;20037;-73
2023/03/25 06:11:00;;;;;;;3.88;0.82;;;9.40;95.60;;;;;;5073184;28;20059;-71
2023/03/25 06:13:26;;;;;;;1.60;0.70;;;9.50;95.10;;;;;;5073056;28;20035;-73
2023/03/25 06:15:56;;;;;;;6.03;0.90;;;9.50;95.20;;;;;;5055623;28;20049;-72
2023/03/25 06:18:25;;;;;;;7.47;1.00;;;9.50;94.90;;;;;;5073108;28;20025;-73
2023/03/25 06:20:52;;;;;;;4.22;1.05;;;9.50;94.70;;;;;;5072916;28;20115;-73
2023/03/25 06:23:21;;;;;;;4.85;1.17;;;9.50;94.60;;;;;;5071955;28;20025;-73
2023/03/25 06:25:48;;;;;;;5.13;0.93;;;9.60;94.60;;;;;;5072970;28;20047;-73
2023/03/25 06:28:17;;;;;;;5.43;1.23;;;9.50;94.20;;;;;;5072851;28;20032;-74
2023/03/25 06:30:46;;;;;;;4.70;1.40;;;9.50;93.80;;;;;;5072879;28;20032;-73
2023/03/25 06:33:13;;;;;;;3.13;0.82;;;9.60;94.00;;;;;;5071874;28;20052;-73
2023/03/25 06:35:41;;;;;;;3.42;0.85;;;9.50;93.40;;;;;;5055480;28;20044;-74
2023/03/25 06:38:08;;;;;;;5.00;0.90;;;9.50;93.50;;;;;;5075375;28;20040;-73
2023/03/25 06:40:38;;;;;;;5.90;1.10;;;9.50;93.60;;;;;;5075795;28;20040;-73
2023/03/25 06:43:05;;;;;;;4.25;0.90;;;9.50;93.40;;;;;;5076861;28;20033;-73
2023/03/25 06:45:34;;;;;;;2.97;0.88;;;9.50;93.30;;;;;;5076667;28;20021;-73
2023/03/25 06:48:00;;;;;;;6.22;1.23;;;9.50;93.30;;;;;;5075575;28;20051;-73
2023/03/25 06:50:26;;;;;;;2.65;1.00;;;9.50;93.20;;;;;;5076561;28;20073;-73
2023/03/25 06:52:51;;;;;;;6.03;1.25;;;9.60;93.10;;;;;;5076498;28;20059;-73
2023/03/25 06:55:17;;;;;;;3.78;1.30;;;9.60;93.00;;;;;;5076473;28;20025;-73
2023/03/25 06:57:42;;;;;;;6.00;1.08;;;9.60;93.30;;;;;;5075399;28;20040;-74
2023/03/25 07:00:10;;;;;;;3.75;1.13;;;9.70;93.20;;;;;;5076319;28;20037;-74
2023/03/25 07:02:37;;;;;;;3.00;0.98;;;9.80;93.10;;;;;;5076378;28;20021;-73
2023/03/25 07:05:03;;;;;;;1.85;0.93;;;9.80;92.50;;;;;;5076341;28;20028;-74
2023/03/25 07:07:29;;;;;;;4.28;1.30;;;9.80;93.10;;;;;;5075319;28;20033;-73
2023/03/25 07:09:55;;;;;;;3.53;0.90;;;9.80;92.40;;;;;;5076186;28;20029;-73
2023/03/25 07:12:21;;;;;;;11.70;1.45;;;9.80;92.60;;;;;;5076167;28;20029;-73
2023/03/25 07:14:51;;;;;;;5.22;1.23;;;9.90;92.70;;;;;;5076153;28;20029;-74
2023/03/25 07:17:17;;;;;;;3.97;1.15;;;9.90;92.50;;;;;;5076097;28;20033;-74
2023/03/25 07:19:42;;;;;;;7.38;1.50;;;10.00;92.80;;;;;;5074932;28;20421;-73
2023/03/25 07:22:08;;;;;;;5.53;1.05;;;10.00;92.70;;;;;;5058306;28;20031;-73
2023/03/25 07:24:34;;;;;;;7.93;1.27;;;9.90;92.10;;;;;;5075911;28;20037;-72
2023/03/25 07:26:59;;;;;;;7.65;1.58;;;10.00;91.90;;;;;;5075878;28;20035;-73
2023/03/25 07:29:25;;;;;;;5.30;1.27;;;10.00;92.40;;;;;;5075822;28;20029;-74
2023/03/25 07:31:51;;;;;;;4.10;1.05;;;10.00;92.40;;;;;;5074788;28;20374;-73
2023/03/25 07:34:16;;;;;;;3.80;1.08;;;10.00;92.20;;;;;;5074645;28;20049;-74
2023/03/25 07:36:42;;;;;;;6.68;1.10;;;10.10;92.00;;;;;;5074660;28;20028;-74
2023/03/25 07:39:08;;;;;;;4.40;1.33;;;10.00;92.20;;;;;;5074597;28;20036;-74
2023/03/25 07:41:33;;;;;;;9.88;1.85;;;10.10;92.10;;;;;;5075578;28;20029;-74
2023/03/25 07:43:59;;;;;;;6.05;1.45;;;10.10;92.00;;;;;;5075554;28;20029;-74
2023/03/25 07:46:24;;;;;;;8.07;2.30;;;10.20;92.20;;;;;;5075487;28;20027;-74
2023/03/25 07:48:50;;;;;;;7.70;1.35;;;10.30;91.90;;;;;;5074503;28;20055;-73
2023/03/25 07:51:16;;;;;;;7.32;1.50;;;10.40;92.10;;;;;;5075409;28;20044;-74
2023/03/25 07:53:44;;;;;;;4.38;1.45;;;10.30;92.60;;;;;;5074497;28;20037;-74
2023/03/25 07:56:10;;;;;;;7.57;1.83;;;10.20;93.00;;;;;;5074348;28;20059;-74
2023/03/25 07:58:36;;;;;;;6.97;1.48;;;10.20;93.30;;;;;;5074454;28;20025;-73
2023/03/25 08:01:02;;;;;;;8.90;1.50;;;10.20;93.40;;;;;;5074192;28;20033;-73
2023/03/25 08:03:28;;;;;;;6.80;1.65;;;10.10;93.40;;;;;;5075282;28;20175;-73
2023/03/25 08:05:54;;;;;;;8.38;1.70;;;10.10;93.80;;;;;;5075262;28;20516;-73
2023/03/25 08:08:20;;;;;;;7.13;1.52;;;10.10;93.40;;;;;;5074068;28;20399;-74
2023/03/25 08:10:46;;;;;;;7.10;1.50;;;10.10;93.50;;;;;;5074114;28;20040;-73
2023/03/25 08:13:12;;;;;;;4.97;1.48;;;10.10;93.20;;;;;;5074043;28;20029;-73
2023/03/25 08:15:39;;;;;;;6.22;1.40;;;10.10;93.30;;;;;;5073975;28;20036;-73
2023/03/25 08:18:06;;;;;;;5.72;2.08;;;10.10;93.70;;;;;;5074927;28;20029;-73
2023/03/25 08:20:32;;;;;;;6.20;1.70;;;10.10;93.70;;;;;;5074771;28;20025;-74
2023/03/25 08:22:58;;;;;;;11.23;1.30;;;10.20;94.00;;;;;;5057282;28;20075;-73
2023/03/25 08:25:24;;;;;;;7.03;1.92;;;10.20;93.50;;;;;;5074803;28;20025;-74
2023/03/25 08:27:50;;;;;;;6.55;1.50;;;10.20;94.00;;;;;;5073588;28;20025;-73
2023/03/25 08:30:16;;;;;;;12.70;1.65;;;10.10;93.50;;;;;;5074768;28;20021;-74
2023/03/25 08:32:44;;;;;;;1.20;0.88;;;10.20;93.70;;;;;;5074621;28;20025;-73
2023/03/25 08:35:12;;;;;;;8.48;1.40;;;10.20;93.60;;;;;;5074391;28;20045;-73
2023/03/25 08:37:37;;;;;;;6.28;1.70;;;10.10;93.40;;;;;;5073494;28;20036;-73
2023/03/25 08:40:10;;;;;;;5.38;1.35;;;10.10;93.50;;;;;;5074277;28;20033;-73
2023/03/25 08:42:36;;;;;;;6.90;1.75;;;10.20;93.90;;;;;;5073698;28;20035;-73
2023/03/25 08:45:03;;;;;;;4.15;1.33;;;10.20;94.20;;;;;;5073373;28;20032;-73
2023/03/25 08:47:30;;;;;;;2.85;1.20;;;10.20;93.60;;;;;;5074289;28;20025;-73
2023/03/25 08:49:55;;;;;;;5.47;1.20;;;10.20;94.20;;;;;;5074339;28;20028;-73
2023/03/25 08:52:21;;;;;;;3.78;1.02;;;10.30;93.80;;;;;;5074181;28;20025;-73
2023/03/25 08:54:47;;;;;;;11.10;2.00;;;10.20;93.80;;;;;;5073431;28;20032;-74
2023/03/25 08:57:12;;;;;;;3.95;1.58;;;10.30;93.90;;;;;;5073070;28;20029;-73
2023/03/25 08:59:38;;;;;;;11.15;1.55;;;10.30;94.30;;;;;;5072591;28;20099;-72
2023/03/25 09:02:04;;;;;;;6.30;2.20;;;10.20;94.40;;;;;;5073094;28;20021;-73
2023/03/25 09:04:30;;;;;;;5.88;1.50;;;10.20;94.80;;;;;;5074042;28;20032;-72
2023/03/25 09:06:56;;;;;;;8.20;1.73;;;10.10;95.30;;;;;;5073887;28;20025;-73
2023/03/25 09:09:22;;;;;;;8.63;1.92;;;10.10;95.60;;;;;;5072882;28;20027;-73
2023/03/25 09:11:48;;;;;;;10.15;1.90;;;10.10;95.70;;;;;;5073829;28;20044;-73
2023/03/25 09:14:13;;;;;;;3.10;2.10;;;10.10;95.60;;;;;;5073848;28;20096;-73
2023/03/25 09:16:39;;;;;;;8.88;1.83;;;10.10;95.50;;;;;;5072711;28;20143;-72
2023/03/25 09:19:05;;;;;;;6.07;1.85;;;10.10;95.80;;;;;;5072791;28;20502;-73
2023/03/25 09:21:31;;;;;;;6.28;1.92;;;10.20;96.10;;;;;;5073558;28;20029;-72
2023/03/25 09:23:57;;;;;;;4.97;1.63;;;10.30;96.10;;;;;;5072737;28;20028;-73
2023/03/25 09:26:25;;;;;;;8.88;2.10;;;10.40;96.30;;;;;;5073477;28;20032;-73
2023/03/25 09:28:54;;;;;;;9.82;2.40;;;10.50;96.40;;;;;;5073576;28;20029;-73
2023/03/25 09:31:20;;;;;;;4.25;1.92;;;10.70;96.30;;;;;;5073481;28;20093;-72
2023/03/25 09:33:45;;;;;;;6.50;1.52;;;10.80;95.50;;;;;;5073184;28;20049;-72
2023/03/25 09:36:11;;;;;;;5.35;1.95;;;10.90;95.40;;;;;;5073442;28;20037;-73
2023/03/25 09:38:37;;;;;;;10.10;2.05;;;10.90;94.50;;;;;;5072415;28;20044;-72
2023/03/25 09:41:27;;;;;;;8.23;2.10;;;11.00;94.90;;;;;;5039125;28;20029;-73
2023/03/25 09:44:11;;;;;;;10.75;1.92;;;11.00;93.50;;;;;;5073407;28;20017;-73
2023/03/25 09:46:39;;;;;;;11.52;2.75;;;11.10;93.60;;;;;;5073417;28;20029;-73
2023/03/25 09:49:13;;;;;;;8.52;2.58;;;11.10;93.00;;;;;;5072360;28;20023;-73
2023/03/25 09:51:40;;;;;;;9.02;2.25;;;11.20;93.20;;;;;;5072279;28;20013;-73
2023/03/25 09:54:20;;;;;;;6.25;2.08;;;11.20;92.60;;;;;;5072384;28;20051;-74
2023/03/25 09:56:47;;;;;;;12.25;2.33;;;11.30;92.20;;;;;;5073194;28;20371;-74
2023/03/25 09:59:20;;;;;;;13.10;2.97;;;11.30;92.20;;;;;;5073110;28;20025;-73
2023/03/25 10:01:51;;;;;;;8.70;2.10;;;11.30;91.90;;;;;;5073265;28;20024;-73
2023/03/25 10:04:54;;;;;;;7.10;2.33;;;11.40;91.30;;;;;;5072399;28;20052;-73
2023/03/25 10:07:26;;;;;;;8.45;2.63;;;11.40;91.70;;;;;;5071920;28;20058;-73
2023/03/25 10:09:54;;;;;;;4.43;2.43;;;11.30;91.40;;;;;;5073247;28;20029;-73
2023/03/25 10:12:40;;;;;;;10.05;2.58;;;11.30;92.00;;;;;;5073290;28;20032;-73
2023/03/25 10:15:17;;;;;;;6.50;2.22;;;11.20;92.50;;;;;;5076223;28;20032;-72
2023/03/25 10:18:02;;;;;;;9.65;2.50;;;11.20;92.50;;;;;;5077171;28;20024;-73
2023/03/25 10:20:50;;;;;;;9.82;2.63;;;11.10;92.60;;;;;;5076998;28;20048;-73
2023/03/25 10:23:40;;;;;;;14.18;2.72;;;11.10;93.00;;;;;;5077282;28;20115;-73
2023/03/25 10:26:20;;;;;;;10.27;2.60;;;11.10;93.80;;;;;;5075955;28;20043;-73
2023/03/25 10:29:00;;;;;;;12.27;3.25;;;11.00;94.10;;;;;;5077062;28;20029;-74
2023/03/25 10:31:30;;;;;;;11.50;6.28;;;11.00;94.70;;;;;;5076918;28;20085;-73
2023/03/25 10:34:01;;;;;;;10.38;2.88;;;10.90;94.60;;;;;;5076650;28;20045;-73
2023/03/25 10:36:43;;;;;;;4.63;2.10;;;10.90;94.40;;;;;;5076971;28;20036;-73
2023/03/25 10:39:20;;;;;;;8.75;2.13;;;10.90;94.10;;;;;;5076815;28;20039;-73
2023/03/25 10:41:58;;;;;;;5.30;2.13;;;10.90;93.60;;;;;;5075651;28;20029;-73
2023/03/25 10:44:26;;;;;;;7.68;2.65;;;11.00;93.80;;;;;;5075736;28;20041;-73
2023/03/25 10:47:06;;;;;;;6.75;2.45;;;11.00;94.00;;;;;;5075561;28;20021;-72
2023/03/25 10:49:35;;;;;;;8.27;2.75;;;11.00;94.40;;;;;;5076816;28;20049;-74
2023/03/25 10:52:02;;;;;;;8.02;1.88;;;10.90;93.90;;;;;;5076367;28;20044;-73
2023/03/25 10:54:40;;;;;;;8.27;3.72;;;10.90;93.60;;;;;;5075548;28;20093;-72
2023/03/25 10:57:09;;;;;;;7.68;3.78;;;10.90;94.10;;;;;;5076475;28;20028;-74
2023/03/25 11:00:11;;;;;;;6.85;2.20;;;10.90;94.30;;;;;;5075346;28;20054;-73
2023/03/25 11:02:37;;;;;;;8.93;2.72;;;10.90;94.60;;;;;;5075577;28;20021;-73
2023/03/25 11:05:06;;;;;;;9.88;2.45;;;10.90;95.10;;;;;;5075360;28;20112;-73
2023/03/25 11:07:40;;;;;;;8.77;2.58;;;10.90;94.90;;;;;;5076204;28;20029;-72
2023/03/25 11:10:20;;;;;;;5.80;2.58;;;10.80;95.00;;;;;;5076268;28;20032;-72
2023/03/25 11:12:48;;;;;;;8.18;2.92;;;10.90;94.80;;;;;;5076093;28;20035;-73
2023/03/25 11:15:22;;;;;;;9.27;2.33;;;10.90;94.90;;;;;;5076139;28;20032;-73
2023/03/25 11:18:14;;;;;;;7.82;2.15;;;10.90;95.10;;;;;;5076103;28;20027;-74
2023/03/25 11:20:53;;;;;;;14.35;2.75;;;11.00;95.30;;;;;;5075868;28;20033;-72
2023/03/25 11:23:26;;;;;;;12.90;3.58;;;11.10;94.90;;;;;;5074545;28;20029;-73
2023/03/25 11:25:54;;;;;;;10.98;3.33;;;11.20;95.30;;;;;;5076065;28;20017;-73
2023/03/25 11:29:00;;;;;;;9.73;3.33;;;11.30;95.20;;;;;;5075873;28;20104;-72
2023/03/25 11:31:28;;;;;;;12.07;3.30;;;11.40;95.00;;;;;;4994999;28;20030;-73
2023/03/25 11:34:09;;;;;;;8.82;2.63;;;11.50;94.80;;;;;;5063210;28;20045;-73
2023/03/25 11:37:13;;;;;;;17.20;2.90;;;11.60;94.60;;;;;;5075807;28;20025;-73
2023/03/25 11:39:41;;;;;;;12.00;2.58;;;11.60;94.40;;;;;;5075557;28;20040;-72
2023/03/25 11:42:15;;;;;;;9.48;3.17;;;11.60;94.30;;;;;;5075591;28;20043;-73
2023/03/25 11:44:42;;;;;;;9.32;2.92;;;11.60;94.20;;;;;;5075558;28;20025;-73
2023/03/25 11:47:10;;;;;;;6.95;2.05;;;11.60;94.40;;;;;;5075510;28;20113;-72
2023/03/25 11:49:40;;;;;;;10.00;2.22;;;11.70;94.20;;;;;;5075488;28;20045;-73
2023/03/25 11:52:08;;;;;;;8.80;1.70;;;11.70;94.10;;;;;;5075407;28;20060;-72
2023/03/25 11:54:35;;;;;;;7.22;1.67;;;11.70;93.70;;;;;;5075256;28;20033;-73
2023/03/25 11:57:10;;;;;;;8.25;1.73;;;11.70;93.70;;;;;;5074315;28;20029;-73
2023/03/25 11:59:42;;;;;;;7.15;2.00;;;11.80;94.30;;;;;;5075245;28;20031;-73
2023/03/25 12:02:36;;;;;;;12.23;3.22;;;12.00;93.70;;;;;;5074502;28;20013;-72
2023/03/25 12:05:11;;;;;;;6.85;1.73;;;12.00;93.00;;;;;;5072580;28;20083;-74
2023/03/25 12:07:48;;;;;;;4.78;1.20;;;12.00;92.00;;;;;;5075301;28;20013;-74
2023/03/25 12:10:25;;;;;;;4.88;1.17;;;12.10;90.80;;;;;;5075072;28;20025;-73
2023/03/25 12:13:02;;;;;;;3.15;1.23;;;12.00;90.60;;;;;;5075107;28;20025;-73
2023/03/25 12:15:58;;;;;;;3.85;1.60;;;12.10;90.80;;;;;;5074068;28;20048;-73
2023/03/25 12:19:02;;;;;;;4.55;1.10;;;12.00;90.80;;;;;;5074959;28;20059;-73
2023/03/25 12:21:58;;;;;;;7.88;1.33;;;11.90;90.40;;;;;;5074984;28;20458;-73
2023/03/25 12:24:45;;;;;;;9.15;1.73;;;11.80;90.60;;;;;;5074215;28;20029;-73
2023/03/25 12:27:35;;;;;;;6.07;1.02;;;11.70;91.00;;;;;;5074835;28;20056;-73
2023/03/25 12:31:00;;;;;;;5.28;1.02;;;11.50;91.60;;;;;;5073675;28;20062;-72
2023/03/25 12:33:43;;;;;;;8.25;1.10;;;11.40;92.20;;;;;;4965024;28;20036;-73
2023/03/25 12:36:28;;;;;;;5.90;1.27;;;11.30;92.30;;;;;;4973707;28;20062;-73
2023/03/25 12:38:53;;;;;;;5.95;1.23;;;11.20;92.60;;;;;;5045845;28;20059;-72
2023/03/25 12:41:31;;;;;;;7.57;1.48;;;11.30;92.30;;;;;;5074548;28;20029;-73
2023/03/25 12:44:30;;;;;;;7.40;3.15;;;11.30;92.50;;;;;;5073502;28;20021;-73
2023/03/25 12:47:23;;;;;;;4.63;0.70;;;11.20;93.10;;;;;;5073441;28;20031;-73
2023/03/25 12:50:18;;;;;;;2.63;0.80;;;11.00;93.60;;;;;;5074184;28;20086;-72
2023/03/25 12:53:03;;;;;;;4.68;1.73;;;11.10;93.70;;;;;;5045050;28;20041;-73
2023/03/25 12:55:54;;;;;;;5.05;1.50;;;11.30;93.80;;;;;;5074260;28;20071;-73
2023/03/25 12:58:32;;;;;;;2.00;0.85;;;11.40;94.70;;;;;;5073191;28;20052;-72
2023/03/25 13:01:20;;;;;;;7.75;1.70;;;11.40;92.80;;;;;;5074233;28;20029;-73
2023/03/25 13:03:46;;;;;;;8.73;3.03;;;11.40;92.80;;;;;;5074120;28;20067;-72
2023/03/25 13:06:49;;;;;;;5.53;1.98;;;11.50;92.70;;;;;;5073070;28;20017;-72
2023/03/25 13:09:30;;;;;;;5.45;1.33;;;11.60;92.20;;;;;;5073978;28;20017;-73
2023/03/25 13:12:01;;;;;;;6.28;1.92;;;11.70;92.60;;;;;;5074083;28;20032;-73
2023/03/25 13:14:34;;;;;;;6.97;2.15;;;11.80;92.80;;;;;;5073906;28;20029;-72
2023/03/25 13:17:04;;;;;;;8.13;2.08;;;12.00;92.30;;;;;;5072834;28;20017;-73